Time;durP1;ratioP1;P1;durP2;ratioP2;P2;SDS_P1;SDS_P2;PMS_P1;PMS_P2;Temp;Humidity;BMP_temperature;BMP_pressure;BME280_temperature;BME280_humidity;BME280_pressure;Samples;Min_cycle;Max_cycle;Signal;HPM_P1;HPM_P2
2021/12/26 00:00:53;;;;;;;52.03;23.67;;;0.20;99.90;;;;;;4974400;28;20070;-83
2021/12/26 00:03:23;;;;;;;50.65;23.85;;;0.10;99.90;;;;;;4973917;28;20039;-84
2021/12/26 00:05:50;;;;;;;50.10;22.92;;;0.20;99.90;;;;;;4974175;28;20077;-83
2021/12/26 00:08:16;;;;;;;46.35;22.10;;;0.10;99.90;;;;;;4941914;28;20037;-84
2021/12/26 00:10:42;;;;;;;48.70;22.15;;;0.20;99.90;;;;;;4942384;28;20402;-84
2021/12/26 00:13:07;;;;;;;49.08;23.45;;;0.10;99.90;;;;;;4957815;28;20031;-84
2021/12/26 00:15:33;;;;;;;46.45;22.20;;;0.10;99.90;;;;;;4942006;28;20073;-84
2021/12/26 00:17:59;;;;;;;52.67;23.38;;;0.10;99.90;;;;;;4941885;28;20407;-83
2021/12/26 00:20:26;;;;;;;52.58;24.10;;;0.10;99.90;;;;;;4974038;28;20089;-84
2021/12/26 00:22:52;;;;;;;53.33;23.85;;;0.10;99.90;;;;;;4957776;28;20053;-83
2021/12/26 00:25:18;;;;;;;50.55;23.35;;;0.20;99.90;;;;;;4974913;28;20506;-83
2021/12/26 00:27:44;;;;;;;49.75;24.08;;;0.10;99.90;;;;;;4941639;28;20031;-83
2021/12/26 00:30:15;;;;;;;49.50;25.30;;;0.20;99.90;;;;;;4941857;28;20031;-83
2021/12/26 00:32:41;;;;;;;53.17;22.85;;;0.10;99.90;;;;;;4957837;28;20037;-84
2021/12/26 00:35:09;;;;;;;54.90;23.10;;;0.20;99.90;;;;;;4941391;28;20510;-84
2021/12/26 00:37:35;;;;;;;49.00;23.15;;;0.10;99.90;;;;;;4957630;28;20058;-83
2021/12/26 00:40:01;;;;;;;53.97;23.25;;;0.10;99.90;;;;;;4941647;28;20561;-84
2021/12/26 00:42:28;;;;;;;49.05;22.88;;;0.10;99.90;;;;;;4973644;28;20390;-83
2021/12/26 00:44:53;;;;;;;48.08;22.65;;;0.10;99.90;;;;;;4941042;28;20041;-83
2021/12/26 00:47:19;;;;;;;53.70;24.60;;;0.10;99.90;;;;;;4941530;28;20074;-84
2021/12/26 00:49:45;;;;;;;51.45;22.70;;;0.10;99.90;;;;;;4941286;28;20041;-83
2021/12/26 00:52:10;;;;;;;56.20;25.58;;;0.10;99.90;;;;;;4941496;28;20414;-83
2021/12/26 00:54:36;;;;;;;59.58;23.73;;;0.10;99.90;;;;;;4957199;28;20399;-83
2021/12/26 00:57:04;;;;;;;53.63;23.85;;;0.10;99.90;;;;;;4973343;28;20137;-84
2021/12/26 00:59:31;;;;;;;54.38;24.73;;;0.10;99.90;;;;;;4941358;28;20501;-83
2021/12/26 01:01:57;;;;;;;62.92;26.60;;;0.10;99.90;;;;;;4973269;28;20031;-84
2021/12/26 01:04:23;;;;;;;60.65;27.10;;;0.00;99.90;;;;;;4972894;28;20082;-83
2021/12/26 01:06:51;;;;;;;58.10;25.58;;;0.00;99.90;;;;;;4941424;28;20081;-83
2021/12/26 01:09:22;;;;;;;58.85;26.83;;;0.00;99.90;;;;;;4941187;28;20026;-84
2021/12/26 01:11:53;;;;;;;55.78;25.77;;;0.00;99.90;;;;;;4974570;28;20018;-84
2021/12/26 01:14:30;;;;;;;53.08;25.08;;;0.00;99.90;;;;;;4941309;28;20046;-84
2021/12/26 01:17:11;;;;;;;57.83;25.20;;;0.00;99.90;;;;;;4974738;28;20046;-84
2021/12/26 01:19:48;;;;;;;51.75;24.02;;;0.00;99.90;;;;;;4973158;28;20141;-84
2021/12/26 01:22:16;;;;;;;61.28;25.48;;;0.00;99.90;;;;;;4941104;28;20038;-84
2021/12/26 01:24:48;;;;;;;53.67;25.08;;;0.00;99.90;;;;;;4957381;28;20121;-83
2021/12/26 01:27:15;;;;;;;56.45;25.80;;;0.00;99.90;;;;;;4940580;28;20028;-84
2021/12/26 01:29:41;;;;;;;58.55;25.63;;;0.00;99.90;;;;;;4957173;28;20030;-83
2021/12/26 01:32:07;;;;;;;55.85;26.25;;;0.00;99.90;;;;;;4941098;28;20034;-84
2021/12/26 01:35:08;;;;;;;60.20;26.70;;;0.00;99.90;;;;;;4933538;29;20114;-83
2021/12/26 01:37:54;;;;;;;59.03;25.30;;;0.00;99.90;;;;;;4950943;28;20525;-84
2021/12/26 01:40:48;;;;;;;58.80;25.52;;;-0.10;99.90;;;;;;4953530;28;20042;-83
2021/12/26 01:43:30;;;;;;;57.08;25.25;;;-0.10;99.90;;;;;;4942321;28;20039;-84
2021/12/26 01:46:02;;;;;;;58.55;25.20;;;-0.10;99.90;;;;;;4957435;28;20038;-84
2021/12/26 01:48:28;;;;;;;54.60;24.40;;;-0.10;99.90;;;;;;4940931;28;20046;-84
2021/12/26 01:50:55;;;;;;;59.20;25.27;;;-0.10;99.90;;;;;;4941043;28;20023;-83
2021/12/26 01:53:23;;;;;;;54.53;25.15;;;0.00;99.90;;;;;;4940440;28;20491;-84
2021/12/26 01:55:52;;;;;;;58.50;25.13;;;0.00;99.90;;;;;;4940866;28;20027;-84
2021/12/26 01:58:21;;;;;;;55.35;24.95;;;0.00;99.90;;;;;;4941193;28;20046;-84
2021/12/26 02:00:54;;;;;;;55.28;24.15;;;0.00;99.90;;;;;;4972994;28;20027;-84
2021/12/26 02:03:20;;;;;;;54.30;24.48;;;0.10;99.90;;;;;;4977743;28;20063;-83
2021/12/26 02:05:46;;;;;;;49.95;23.98;;;0.10;99.90;;;;;;4944361;28;20594;-83
2021/12/26 02:08:14;;;;;;;55.80;23.83;;;0.10;99.90;;;;;;4976660;28;20034;-82
2021/12/26 02:10:42;;;;;;;54.67;24.02;;;0.00;99.90;;;;;;4944952;28;20062;-83
2021/12/26 02:13:08;;;;;;;55.80;25.75;;;0.00;99.90;;;;;;4944771;28;20037;-83
2021/12/26 02:15:34;;;;;;;53.67;22.90;;;0.00;99.90;;;;;;4944316;28;20526;-84
2021/12/26 02:18:06;;;;;;;66.78;26.42;;;0.00;99.90;;;;;;4976277;28;20035;-84
2021/12/26 02:20:49;;;;;;;63.90;25.67;;;0.00;99.90;;;;;;4944274;28;20058;-81
2021/12/26 02:28:45;;;;;;;67.72;25.92;;;0.00;99.90;;;;;;4960397;28;20038;-83
2021/12/26 02:31:14;;;;;;;66.32;26.05;;;0.00;99.90;;;;;;4976540;28;20034;-83
2021/12/26 02:33:40;;;;;;;63.53;26.20;;;0.00;99.90;;;;;;4943810;28;20522;-83
2021/12/26 02:36:07;;;;;;;68.90;26.73;;;0.00;99.90;;;;;;4976174;28;20105;-84
2021/12/26 02:38:34;;;;;;;65.45;25.25;;;0.10;99.90;;;;;;4943898;28;20078;-83
2021/12/26 02:41:00;;;;;;;71.43;27.48;;;0.00;99.90;;;;;;4944142;28;20391;-84
2021/12/26 02:43:29;;;;;;;67.38;26.35;;;0.00;99.90;;;;;;4943979;28;20041;-83
2021/12/26 02:45:56;;;;;;;71.05;27.10;;;0.00;99.90;;;;;;4943926;28;20086;-83
2021/12/26 02:48:23;;;;;;;59.88;25.73;;;0.00;99.90;;;;;;4943808;28;20058;-83
2021/12/26 02:50:56;;;;;;;64.80;25.02;;;0.10;99.90;;;;;;4943822;28;20069;-84
2021/12/26 02:53:24;;;;;;;60.15;25.75;;;0.10;99.90;;;;;;4944192;28;20027;-84
2021/12/26 02:55:53;;;;;;;59.92;25.58;;;0.10;99.90;;;;;;4943798;28;20035;-83
2021/12/26 02:58:21;;;;;;;63.58;25.02;;;0.00;99.90;;;;;;4959690;28;20038;-83
2021/12/26 03:01:11;;;;;;;63.63;24.77;;;0.10;99.90;;;;;;4975593;28;20030;-83
2021/12/26 03:03:38;;;;;;;69.07;26.15;;;0.10;99.90;;;;;;4959525;28;20035;-83
2021/12/26 03:06:17;;;;;;;65.70;25.02;;;0.10;99.90;;;;;;4975711;28;20042;-84
2021/12/26 03:08:48;;;;;;;71.38;24.92;;;0.10;99.90;;;;;;4943277;28;20535;-83
2021/12/26 03:11:14;;;;;;;65.65;25.58;;;0.10;99.90;;;;;;4943658;28;20034;-84
2021/12/26 03:13:40;;;;;;;65.38;24.75;;;0.10;99.90;;;;;;4974075;28;20506;-83
2021/12/26 03:16:06;;;;;;;72.40;25.83;;;0.10;99.90;;;;;;4959666;28;20039;-84
2021/12/26 03:18:32;;;;;;;64.10;26.48;;;0.10;99.90;;;;;;4943410;28;20027;-83
2021/12/26 03:20:57;;;;;;;73.50;25.35;;;0.10;99.90;;;;;;4943394;28;20046;-84
2021/12/26 03:23:25;;;;;;;72.63;24.48;;;0.10;99.90;;;;;;4975314;28;20039;-84
2021/12/26 03:25:58;;;;;;;75.32;27.00;;;0.10;99.90;;;;;;4975239;28;20031;-84
2021/12/26 03:28:25;;;;;;;69.07;26.88;;;0.10;99.90;;;;;;4943123;28;20049;-83
2021/12/26 03:30:52;;;;;;;68.65;25.25;;;0.10;99.90;;;;;;4943025;28;20034;-84
2021/12/26 03:33:19;;;;;;;73.35;26.23;;;0.00;99.90;;;;;;4942835;28;20033;-84
2021/12/26 03:35:46;;;;;;;72.35;27.88;;;0.10;99.90;;;;;;4943005;28;20027;-84
2021/12/26 03:38:14;;;;;;;71.43;27.25;;;0.10;99.90;;;;;;4975128;28;20027;-83
2021/12/26 03:40:50;;;;;;;75.70;27.05;;;0.10;99.90;;;;;;4960615;28;20031;-83
2021/12/26 03:43:18;;;;;;;71.03;25.02;;;0.10;99.90;;;;;;4974805;28;20035;-83
2021/12/26 03:45:48;;;;;;;70.68;25.65;;;0.10;99.90;;;;;;4942912;28;20090;-83
2021/12/26 03:48:14;;;;;;;72.25;26.13;;;0.10;99.90;;;;;;4942839;28;20527;-83
2021/12/26 03:50:41;;;;;;;83.97;27.45;;;0.10;99.90;;;;;;4942820;28;20118;-84
2021/12/26 03:53:12;;;;;;;86.55;28.77;;;0.10;99.90;;;;;;4942647;28;20023;-84
2021/12/26 03:55:41;;;;;;;71.35;27.83;;;0.10;99.90;;;;;;4943274;28;20085;-84
2021/12/26 03:58:07;;;;;;;75.78;26.88;;;0.20;99.90;;;;;;4942910;28;20497;-84
2021/12/26 04:00:36;;;;;;;78.25;28.20;;;0.20;99.90;;;;;;4942654;28;20038;-84
2021/12/26 04:03:02;;;;;;;74.03;26.75;;;0.20;99.90;;;;;;4942362;28;20030;-83
2021/12/26 04:05:31;;;;;;;76.75;26.90;;;0.20;99.90;;;;;;4974398;28;20041;-83
2021/12/26 04:07:57;;;;;;;76.78;25.73;;;0.20;99.90;;;;;;4942524;28;20034;-83
2021/12/26 04:10:24;;;;;;;81.35;26.85;;;0.20;99.90;;;;;;4973978;28;20782;-83
2021/12/26 04:12:53;;;;;;;84.13;27.67;;;0.20;99.90;;;;;;4974268;28;20027;-83
2021/12/26 04:15:21;;;;;;;70.68;24.75;;;0.20;99.90;;;;;;4973875;28;20554;-83
2021/12/26 04:17:51;;;;;;;81.55;26.77;;;0.20;99.90;;;;;;4941865;28;20031;-83
2021/12/26 04:20:18;;;;;;;83.90;27.02;;;0.20;99.90;;;;;;4973777;28;20031;-83
2021/12/26 04:22:44;;;;;;;101.90;29.20;;;0.20;99.90;;;;;;4942159;28;20418;-83
2021/12/26 04:25:10;;;;;;;80.05;26.42;;;0.20;99.90;;;;;;4941179;28;20035;-84
2021/12/26 04:27:37;;;;;;;78.93;26.38;;;0.20;99.90;;;;;;4941717;28;20022;-83
2021/12/26 04:30:06;;;;;;;92.75;25.90;;;0.20;99.90;;;;;;4941695;28;20031;-84
2021/12/26 04:32:32;;;;;;;85.90;27.25;;;0.20;99.90;;;;;;4973814;28;20031;-83
2021/12/26 04:34:58;;;;;;;90.25;25.17;;;0.20;99.90;;;;;;4973479;28;20027;-84
2021/12/26 04:37:25;;;;;;;91.82;26.45;;;0.20;99.90;;;;;;4941857;28;20041;-83
2021/12/26 04:39:51;;;;;;;95.60;27.67;;;0.20;99.90;;;;;;4973786;28;20379;-84
2021/12/26 04:42:17;;;;;;;105.97;28.52;;;0.10;99.90;;;;;;4941640;28;20033;-83
2021/12/26 04:45:02;;;;;;;93.93;26.17;;;0.10;99.90;;;;;;4960380;28;20053;-83
2021/12/26 04:48:04;;;;;;;84.82;26.75;;;0.20;99.90;;;;;;4962636;28;20027;-83
2021/12/26 04:50:33;;;;;;;100.38;28.38;;;0.20;99.90;;;;;;4942198;28;20039;-83
2021/12/26 04:53:05;;;;;;;92.25;28.65;;;0.10;99.90;;;;;;4942439;28;20053;-83
2021/12/26 04:55:31;;;;;;;105.40;31.15;;;0.10;99.90;;;;;;4941485;28;20026;-84
2021/12/26 04:57:57;;;;;;;91.38;29.30;;;0.10;99.90;;;;;;4973742;28;20379;-83
2021/12/26 05:00:28;;;;;;;85.38;27.55;;;0.10;99.90;;;;;;4957564;28;20035;-83
2021/12/26 05:02:56;;;;;;;85.18;27.75;;;0.20;99.90;;;;;;4973878;28;20034;-83
2021/12/26 05:05:26;;;;;;;85.15;25.88;;;0.20;99.90;;;;;;4941553;28;20034;-83
2021/12/26 05:07:53;;;;;;;87.07;26.77;;;0.20;99.90;;;;;;4941636;28;20038;-83
2021/12/26 05:10:20;;;;;;;107.85;26.60;;;0.20;99.90;;;;;;4957215;28;20041;-83
2021/12/26 05:12:47;;;;;;;80.90;27.48;;;0.20;99.90;;;;;;4941357;28;20034;-83
2021/12/26 05:15:16;;;;;;;96.75;27.25;;;0.20;99.90;;;;;;4941111;28;20505;-83
2021/12/26 05:17:42;;;;;;;90.00;28.00;;;0.20;99.90;;;;;;4941462;28;20479;-83
2021/12/26 05:20:11;;;;;;;101.90;29.02;;;0.20;99.90;;;;;;4941550;28;20026;-83
2021/12/26 05:22:38;;;;;;;87.60;27.85;;;0.20;99.90;;;;;;4941341;28;20097;-83
2021/12/26 05:25:06;;;;;;;98.63;29.08;;;0.20;99.90;;;;;;4972845;28;20085;-83
2021/12/26 05:27:34;;;;;;;77.10;26.30;;;0.20;99.90;;;;;;4941179;28;20549;-83
2021/12/26 05:30:01;;;;;;;100.97;27.63;;;0.20;99.90;;;;;;4957148;28;20046;-82
2021/12/26 05:32:27;;;;;;;99.55;30.17;;;0.30;99.90;;;;;;4973332;28;20053;-83
2021/12/26 05:34:53;;;;;;;99.18;28.92;;;0.20;99.90;;;;;;4972978;28;20490;-83
2021/12/26 05:37:19;;;;;;;111.00;31.50;;;0.30;99.90;;;;;;4972288;28;20042;-83
2021/12/26 05:39:45;;;;;;;88.60;29.17;;;0.30;99.90;;;;;;4973104;28;20486;-83
2021/12/26 05:42:15;;;;;;;89.75;27.92;;;0.30;99.90;;;;;;4957243;28;20034;-83
2021/12/26 05:44:42;;;;;;;128.48;30.75;;;0.30;99.90;;;;;;4940986;28;20035;-83
2021/12/26 05:47:08;;;;;;;100.03;30.08;;;0.30;99.90;;;;;;4972976;28;20034;-83
2021/12/26 05:49:51;;;;;;;121.30;31.60;;;0.30;99.90;;;;;;4973072;28;20031;-83
2021/12/26 05:52:19;;;;;;;111.50;30.85;;;0.20;99.90;;;;;;4972939;28;20430;-83
2021/12/26 05:54:49;;;;;;;113.45;30.63;;;0.20;99.90;;;;;;4941367;28;20395;-83
2021/12/26 05:57:17;;;;;;;125.38;31.67;;;0.30;99.90;;;;;;4941070;28;20146;-83
2021/12/26 06:03:08;;;;;;;128.80;30.95;;;0.30;99.90;;;;;;4972625;28;20086;-83
2021/12/26 06:05:34;;;;;;;116.18;30.83;;;0.30;99.90;;;;;;4940239;28;20031;-82
2021/12/26 06:08:00;;;;;;;132.80;31.80;;;0.30;99.90;;;;;;4940698;28;20166;-81
2021/12/26 06:10:26;;;;;;;110.78;30.52;;;0.30;99.90;;;;;;4940649;28;20109;-82
2021/12/26 06:12:53;;;;;;;107.93;31.73;;;0.30;99.90;;;;;;4940687;28;20537;-81
2021/12/26 06:15:19;;;;;;;104.38;31.90;;;0.30;99.90;;;;;;4940539;28;20038;-81
2021/12/26 06:17:45;;;;;;;123.28;33.22;;;0.30;99.90;;;;;;4940702;28;20035;-81
2021/12/26 06:20:29;;;;;;;148.43;34.05;;;0.30;99.90;;;;;;4959334;28;20049;-81
2021/12/26 06:23:33;;;;;;;135.85;33.78;;;0.30;99.90;;;;;;4914215;29;20036;-81
2021/12/26 06:26:19;;;;;;;130.63;33.08;;;0.30;99.90;;;;;;4914577;29;20069;-82
2021/12/26 06:28:45;;;;;;;103.35;30.33;;;0.30;99.90;;;;;;4914064;29;20540;-81
2021/12/26 06:31:40;;;;;;;139.40;32.67;;;0.30;99.90;;;;;;4914035;29;20111;-82
2021/12/26 06:34:26;;;;;;;163.68;35.03;;;0.30;99.90;;;;;;4930467;28;20042;-81
2021/12/26 06:37:10;;;;;;;122.68;32.38;;;0.30;99.90;;;;;;4973921;28;20562;-81
2021/12/26 06:39:54;;;;;;;125.10;32.28;;;0.30;99.90;;;;;;4958970;28;20887;-81
2021/12/26 06:42:42;;;;;;;126.57;33.15;;;0.30;99.90;;;;;;4959211;28;20134;-82
2021/12/26 06:45:43;;;;;;;105.25;31.08;;;0.30;99.90;;;;;;4952171;29;20051;-82
2021/12/26 06:48:17;;;;;;;114.30;32.35;;;0.30;99.90;;;;;;4960059;28;20035;-81
2021/12/26 06:50:46;;;;;;;149.20;35.17;;;0.30;99.90;;;;;;4944370;28;20054;-81
2021/12/26 06:53:12;;;;;;;110.82;31.83;;;0.30;99.90;;;;;;4976926;28;20474;-81
2021/12/26 06:55:38;;;;;;;155.48;33.75;;;0.30;99.90;;;;;;4959752;28;20035;-82
2021/12/26 06:58:04;;;;;;;166.20;35.42;;;0.30;99.90;;;;;;4959976;28;20117;-82
2021/12/26 07:00:30;;;;;;;120.40;30.73;;;0.40;99.90;;;;;;4943734;28;20525;-81
2021/12/26 07:02:56;;;;;;;148.95;35.05;;;0.40;99.90;;;;;;4943840;28;20050;-81
2021/12/26 07:05:22;;;;;;;171.02;36.45;;;0.40;99.90;;;;;;4943360;28;20030;-82
2021/12/26 07:08:02;;;;;;;120.38;32.35;;;0.40;99.90;;;;;;4975839;28;20050;-82
2021/12/26 07:10:37;;;;;;;141.88;33.70;;;0.40;99.90;;;;;;4943637;28;20022;-82
2021/12/26 07:13:04;;;;;;;142.48;34.67;;;0.40;99.90;;;;;;4943699;28;20789;-82
2021/12/26 07:15:36;;;;;;;146.70;35.40;;;0.40;99.90;;;;;;4944310;28;20041;-82
2021/12/26 07:18:03;;;;;;;149.40;35.70;;;0.40;99.90;;;;;;4943153;28;20042;-82
2021/12/26 07:20:38;;;;;;;129.07;33.83;;;0.40;99.90;;;;;;4974150;28;20027;-82
2021/12/26 07:23:19;;;;;;;127.97;32.35;;;0.40;99.90;;;;;;4961283;28;20046;-82
2021/12/26 07:25:47;;;;;;;109.97;31.33;;;0.30;99.90;;;;;;4942204;28;20058;-82
2021/12/26 07:28:16;;;;;;;141.43;33.03;;;0.40;99.90;;;;;;4942989;28;20031;-82
2021/12/26 07:31:01;;;;;;;158.02;34.30;;;0.40;99.90;;;;;;4962031;28;20118;-81
2021/12/26 07:33:27;;;;;;;190.23;37.75;;;0.40;99.90;;;;;;4942791;28;20483;-81
2021/12/26 07:35:58;;;;;;;173.05;35.45;;;0.40;99.90;;;;;;4943453;28;20541;-81
2021/12/26 07:38:51;;;;;;;;;;;0.40;99.90;;;;;;4974146;28;20058;-82
2021/12/26 07:41:18;;;;;;;122.55;32.90;;;0.40;99.90;;;;;;4974877;28;19996;-82
2021/12/26 07:43:46;;;;;;;157.18;35.60;;;0.40;99.90;;;;;;4942663;28;20046;-81
2021/12/26 07:46:44;;;;;;;180.38;37.45;;;0.40;99.90;;;;;;4963283;28;20566;-81
2021/12/26 07:49:17;;;;;;;156.10;34.78;;;0.50;99.90;;;;;;4974873;28;20757;-81
2021/12/26 07:52:09;;;;;;;166.95;35.85;;;0.50;99.90;;;;;;4961318;28;20042;-81
2021/12/26 07:54:56;;;;;;;217.05;35.95;;;0.50;99.90;;;;;;4960881;28;20445;-81
2021/12/26 07:57:48;;;;;;;144.77;34.58;;;0.50;99.90;;;;;;4960425;28;20101;-81
2021/12/26 08:00:32;;;;;;;156.60;35.75;;;0.50;99.90;;;;;;4960624;28;20410;-82
2021/12/26 08:02:59;;;;;;;136.73;33.20;;;0.60;99.90;;;;;;4959042;28;20035;-82
2021/12/26 08:05:31;;;;;;;144.82;35.90;;;0.70;99.90;;;;;;4975790;28;20042;-81
2021/12/26 08:08:10;;;;;;;148.65;35.00;;;0.70;99.90;;;;;;4943484;28;20046;-82
2021/12/26 08:10:36;;;;;;;154.57;36.17;;;0.70;99.90;;;;;;4958142;28;20043;-81
2021/12/26 08:13:02;;;;;;;130.45;34.50;;;0.70;99.90;;;;;;4942322;28;20022;-82
2021/12/26 08:15:27;;;;;;;150.52;36.90;;;0.80;99.90;;;;;;4941627;28;20031;-82
2021/12/26 08:17:53;;;;;;;140.85;36.70;;;0.70;99.90;;;;;;4942106;28;20026;-83
2021/12/26 08:20:19;;;;;;;131.27;36.70;;;0.80;99.90;;;;;;4942023;28;20038;-82
2021/12/26 08:22:45;;;;;;;147.75;36.95;;;0.80;99.90;;;;;;4941800;28;20056;-81
2021/12/26 08:25:11;;;;;;;141.02;37.35;;;0.90;99.90;;;;;;4941379;28;20041;-81
2021/12/26 08:27:37;;;;;;;164.95;39.38;;;0.90;99.90;;;;;;4941966;28;20034;-82
2021/12/26 08:30:05;;;;;;;141.65;35.72;;;0.90;99.90;;;;;;4958208;28;20119;-82
2021/12/26 08:32:33;;;;;;;115.75;36.90;;;0.90;99.90;;;;;;4957702;28;20030;-81
2021/12/26 08:35:00;;;;;;;130.25;36.00;;;0.90;99.90;;;;;;4941820;28;20505;-82
2021/12/26 08:37:27;;;;;;;130.15;35.60;;;1.00;99.90;;;;;;4973896;28;20030;-82
2021/12/26 08:39:53;;;;;;;122.20;34.95;;;1.00;99.90;;;;;;4941664;28;20034;-82
2021/12/26 08:42:20;;;;;;;121.78;34.47;;;1.00;99.90;;;;;;4941854;28;20081;-82
2021/12/26 08:44:45;;;;;;;116.72;33.58;;;1.00;99.90;;;;;;4958004;28;20463;-82
2021/12/26 08:47:12;;;;;;;118.63;33.83;;;1.00;99.90;;;;;;4940211;28;20110;-82
2021/12/26 08:49:38;;;;;;;135.35;36.13;;;1.00;99.90;;;;;;4973711;28;20026;-82
2021/12/26 08:52:06;;;;;;;118.22;34.80;;;1.10;99.90;;;;;;4974017;28;20038;-81
2021/12/26 08:54:33;;;;;;;115.07;32.90;;;1.10;99.90;;;;;;4973509;28;20038;-82
2021/12/26 08:57:00;;;;;;;123.57;36.08;;;1.00;99.90;;;;;;4974855;28;20034;-81
2021/12/26 08:59:30;;;;;;;121.80;37.65;;;1.10;99.90;;;;;;4957944;28;20031;-82
2021/12/26 09:01:57;;;;;;;148.40;37.83;;;1.10;99.90;;;;;;4941523;28;20050;-82
2021/12/26 09:04:22;;;;;;;132.23;34.67;;;1.10;99.90;;;;;;4974636;28;20042;-81
2021/12/26 09:06:48;;;;;;;123.28;35.38;;;1.10;99.90;;;;;;4941375;28;20027;-80
2021/12/26 09:09:14;;;;;;;104.57;32.40;;;1.10;99.90;;;;;;4973266;28;20037;-81
2021/12/26 09:11:40;;;;;;;126.10;34.88;;;1.10;99.90;;;;;;4956859;28;20027;-81
2021/12/26 09:14:05;;;;;;;106.22;32.13;;;1.20;99.90;;;;;;4973368;28;20041;-80
2021/12/26 09:16:36;;;;;;;107.93;33.25;;;1.20;99.90;;;;;;4973351;28;20403;-81
2021/12/26 09:19:03;;;;;;;134.20;33.95;;;1.20;99.90;;;;;;4941383;28;20045;-81
2021/12/26 09:21:29;;;;;;;129.95;36.05;;;1.20;99.90;;;;;;4941314;28;20129;-80
2021/12/26 09:23:56;;;;;;;107.38;33.28;;;1.20;99.90;;;;;;4941047;28;20657;-81
2021/12/26 09:26:21;;;;;;;107.78;32.30;;;1.20;99.90;;;;;;4957262;28;20041;-82
2021/12/26 09:28:48;;;;;;;120.82;33.60;;;1.30;99.90;;;;;;4941317;28;20023;-81
2021/12/26 09:31:14;;;;;;;115.70;33.60;;;1.30;99.90;;;;;;4973203;28;20039;-80
2021/12/26 09:33:40;;;;;;;112.22;33.92;;;1.30;99.90;;;;;;4956927;28;20042;-81
2021/12/26 09:36:06;;;;;;;90.30;30.05;;;1.30;99.90;;;;;;4941247;28;20125;-81
2021/12/26 09:38:32;;;;;;;142.48;43.85;;;1.40;99.90;;;;;;4973067;28;20167;-81
2021/12/26 09:40:59;;;;;;;108.90;36.00;;;1.40;99.90;;;;;;4941210;28;20035;-81
2021/12/26 09:43:26;;;;;;;108.93;37.17;;;1.50;99.90;;;;;;4972900;28;20478;-81
2021/12/26 09:45:52;;;;;;;117.57;35.72;;;1.50;99.90;;;;;;4940713;28;20031;-81
2021/12/26 09:48:18;;;;;;;100.22;32.88;;;1.70;99.90;;;;;;4973067;28;20467;-81
2021/12/26 09:50:45;;;;;;;109.57;35.33;;;1.70;99.90;;;;;;4974045;28;20027;-81
2021/12/26 09:53:11;;;;;;;88.55;30.98;;;1.80;99.90;;;;;;4973948;28;20023;-81
2021/12/26 09:55:36;;;;;;;101.93;32.20;;;1.80;99.90;;;;;;4959969;28;20071;-81
2021/12/26 09:58:03;;;;;;;93.50;31.15;;;1.90;99.90;;;;;;4975834;28;20043;-82
2021/12/26 10:00:44;;;;;;;93.80;31.15;;;2.00;99.90;;;;;;4942243;28;20510;-82
2021/12/26 10:03:20;;;;;;;89.97;30.33;;;2.00;99.90;;;;;;4975815;28;20058;-82
2021/12/26 10:06:12;;;;;;;80.20;25.95;;;1.90;99.90;;;;;;4973972;28;20133;-82
2021/12/26 10:08:58;;;;;;;85.93;27.27;;;1.80;99.90;;;;;;4942013;28;20085;-82
2021/12/26 10:11:30;;;;;;;81.88;26.27;;;1.80;99.90;;;;;;4941570;28;20031;-82
2021/12/26 10:13:59;;;;;;;72.55;26.77;;;1.80;99.90;;;;;;4956617;28;20114;-82
2021/12/26 10:16:28;;;;;;;75.03;25.67;;;1.90;99.90;;;;;;4940823;28;20034;-82
2021/12/26 10:18:55;;;;;;;67.82;25.40;;;1.80;99.90;;;;;;4940938;28;20085;-82
2021/12/26 10:21:23;;;;;;;67.95;26.27;;;1.90;99.90;;;;;;4973036;28;20035;-82
2021/12/26 10:23:50;;;;;;;72.03;26.30;;;1.80;99.90;;;;;;4959619;28;20509;-82
2021/12/26 10:26:25;;;;;;;76.05;25.02;;;1.90;99.90;;;;;;4944196;28;20038;-82
2021/12/26 10:29:09;;;;;;;69.80;24.90;;;1.90;99.90;;;;;;4960323;28;20034;-83
2021/12/26 10:31:36;;;;;;;63.55;25.50;;;1.90;99.90;;;;;;4960157;28;20114;-82
2021/12/26 10:34:02;;;;;;;67.60;25.33;;;1.90;99.90;;;;;;4944459;28;20023;-82
2021/12/26 10:36:44;;;;;;;82.20;30.00;;;2.00;99.90;;;;;;4946221;28;20102;-82
2021/12/26 10:39:14;;;;;;;90.82;34.80;;;2.10;99.90;;;;;;4960754;28;20031;-82
2021/12/26 10:42:02;;;;;;;96.85;35.92;;;2.10;99.90;;;;;;4944768;28;20061;-81
2021/12/26 10:44:38;;;;;;;83.47;27.52;;;2.10;99.90;;;;;;4975077;28;20034;-82
2021/12/26 10:47:11;;;;;;;62.90;25.42;;;2.20;99.90;;;;;;4973335;28;20064;-82
2021/12/26 10:49:42;;;;;;;66.85;25.40;;;2.40;99.90;;;;;;4960468;28;20102;-82
2021/12/26 10:52:18;;;;;;;60.15;24.40;;;2.50;99.90;;;;;;4944135;28;20495;-82
2021/12/26 10:54:48;;;;;;;69.63;26.02;;;2.50;99.90;;;;;;4975247;28;20093;-81
2021/12/26 10:57:19;;;;;;;55.97;23.77;;;2.50;99.90;;;;;;4975862;28;20035;-81
2021/12/26 10:59:57;;;;;;;59.97;24.50;;;2.50;99.90;;;;;;4960019;28;20030;-81
2021/12/26 11:02:26;;;;;;;60.75;25.30;;;2.50;99.90;;;;;;4943371;28;20039;-81
2021/12/26 11:04:55;;;;;;;65.03;24.85;;;2.50;99.90;;;;;;4975648;28;20035;-81
2021/12/26 11:07:21;;;;;;;62.08;24.30;;;2.50;99.90;;;;;;4977252;28;20030;-82
2021/12/26 11:10:05;;;;;;;59.80;24.27;;;2.50;99.90;;;;;;4975583;28;20031;-82
2021/12/26 11:12:39;;;;;;;56.95;23.65;;;2.40;99.90;;;;;;4943417;28;20097;-81
2021/12/26 11:15:07;;;;;;;59.75;22.63;;;2.30;99.90;;;;;;4943440;28;20442;-82
2021/12/26 11:17:39;;;;;;;61.75;24.75;;;2.30;99.90;;;;;;4959469;28;20490;-82
2021/12/26 11:20:08;;;;;;;63.90;23.45;;;2.30;99.90;;;;;;4959515;28;20035;-82
2021/12/26 11:22:34;;;;;;;64.93;24.95;;;2.30;99.90;;;;;;4959802;28;20038;-82
2021/12/26 11:25:00;;;;;;;63.67;26.08;;;2.20;99.90;;;;;;4943349;28;20041;-82
2021/12/26 11:27:26;;;;;;;70.60;26.60;;;2.20;99.90;;;;;;4943962;28;20027;-81
2021/12/26 11:29:53;;;;;;;63.13;26.00;;;2.30;99.90;;;;;;4976772;28;20601;-81
2021/12/26 11:32:24;;;;;;;60.05;22.85;;;2.50;99.90;;;;;;4959590;28;20042;-81
2021/12/26 11:34:50;;;;;;;;;;;2.60;99.90;;;;;;4943105;28;20031;-82
2021/12/26 11:37:16;;;;;;;67.88;22.77;;;2.70;99.90;;;;;;4977491;28;19917;-82
2021/12/26 11:40:31;;;;;;;75.75;23.92;;;2.80;99.90;;;;;;4955712;28;20027;-81
2021/12/26 11:43:39;;;;;;;60.92;23.48;;;2.90;99.90;;;;;;4961923;28;20430;-81
2021/12/26 11:47:02;;;;;;;47.17;21.52;;;3.00;99.90;;;;;;4955732;28;20517;-81
2021/12/26 11:50:02;;;;;;;76.53;27.58;;;3.00;99.90;;;;;;4975801;28;20050;-81
2021/12/26 11:53:31;;;;;;;66.05;26.63;;;3.10;99.90;;;;;;4943719;28;20114;-81
2021/12/26 11:56:28;;;;;;;76.25;24.55;;;3.20;99.90;;;;;;4961571;28;20074;-81
2021/12/26 11:59:16;;;;;;;65.80;21.83;;;3.20;99.90;;;;;;4975048;28;20043;-81
2021/12/26 12:01:47;;;;;;;57.72;22.23;;;3.20;99.90;;;;;;4975021;28;20041;-81
2021/12/26 12:04:20;;;;;;;58.03;23.10;;;3.20;99.90;;;;;;4942677;28;20050;-81
2021/12/26 12:06:47;;;;;;;61.53;22.60;;;3.20;99.90;;;;;;4942644;28;20049;-81
2021/12/26 12:09:28;;;;;;;53.90;21.50;;;3.10;99.90;;;;;;4958666;28;20049;-81
2021/12/26 12:11:57;;;;;;;60.38;20.90;;;3.10;99.90;;;;;;4958913;28;20347;-81
2021/12/26 12:14:54;;;;;;;53.42;19.85;;;3.20;99.90;;;;;;4974482;28;20121;-81
2021/12/26 12:17:28;;;;;;;55.15;21.38;;;3.20;99.90;;;;;;4974436;28;20430;-81
2021/12/26 12:20:17;;;;;;;55.13;22.63;;;3.20;99.90;;;;;;4974600;28;20038;-82
2021/12/26 12:23:02;;;;;;;58.45;20.23;;;3.20;99.90;;;;;;4958065;28;20042;-81
2021/12/26 12:25:34;;;;;;;52.22;21.08;;;3.30;99.90;;;;;;4958298;28;20066;-81
2021/12/26 12:28:07;;;;;;;57.90;21.88;;;3.30;99.90;;;;;;4958419;28;20065;-81
2021/12/26 12:30:33;;;;;;;72.13;21.45;;;3.20;99.90;;;;;;4974013;28;20093;-80
2021/12/26 12:33:22;;;;;;;57.53;21.92;;;3.20;99.90;;;;;;4972263;28;20483;-81
2021/12/26 12:35:50;;;;;;;72.88;23.77;;;3.10;99.90;;;;;;4958246;28;20038;-80
2021/12/26 12:38:34;;;;;;;65.63;22.02;;;2.90;99.90;;;;;;4958594;28;20093;-82
2021/12/26 12:41:02;;;;;;;68.22;23.48;;;2.80;99.90;;;;;;4958013;28;20038;-80
2021/12/26 12:43:29;;;;;;;73.03;23.23;;;2.80;99.90;;;;;;4957621;28;20045;-80
2021/12/26 12:45:56;;;;;;;76.45;23.27;;;2.80;99.90;;;;;;4973313;28;20041;-81
2021/12/26 12:48:28;;;;;;;56.55;23.13;;;2.70;99.90;;;;;;4974690;28;20046;-82
2021/12/26 12:51:03;;;;;;;70.22;25.25;;;2.70;99.90;;;;;;4957988;28;20129;-82
2021/12/26 12:53:40;;;;;;;65.47;23.35;;;2.70;99.90;;;;;;4973811;28;20027;-82
2021/12/26 12:56:29;;;;;;;83.65;25.63;;;2.70;99.90;;;;;;4957367;28;20043;-81
2021/12/26 12:59:17;;;;;;;83.75;25.40;;;2.80;99.90;;;;;;4945087;28;20074;-81
2021/12/26 13:01:44;;;;;;;84.20;25.33;;;2.80;99.90;;;;;;4973654;28;20035;-81
2021/12/26 13:04:12;;;;;;;83.95;24.73;;;2.80;99.90;;;;;;4973418;28;20125;-81